createdAt,value
2018-07-21T00:01:16.245Z,4.87
2018-07-21T00:03:45.380Z,4.57
2018-07-21T00:06:14.538Z,4.53
2018-07-21T00:08:43.701Z,5.23
2018-07-21T00:11:13.006Z,4.93
2018-07-21T00:13:42.401Z,4.40
2018-07-21T00:16:11.703Z,4.90
2018-07-21T00:18:40.842Z,6.00
2018-07-21T00:21:09.983Z,4.33
2018-07-21T00:23:39.146Z,4.80
2018-07-21T00:26:08.274Z,3.97
2018-07-21T00:28:37.398Z,5.67
2018-07-21T00:31:06.562Z,4.90
2018-07-21T00:33:36.288Z,5.60
2018-07-21T00:36:05.505Z,4.33
2018-07-21T00:38:34.656Z,4.57
2018-07-21T00:41:03.802Z,4.80
2018-07-21T00:43:32.967Z,4.80
2018-07-21T00:46:02.091Z,4.70
2018-07-21T00:48:31.259Z,4.63
2018-07-21T00:51:00.386Z,4.60
2018-07-21T00:53:33.506Z,5.40
2018-07-21T00:56:03.575Z,4.90
2018-07-21T00:58:32.872Z,5.20
2018-07-21T01:01:02.255Z,4.80
2018-07-21T01:03:31.410Z,4.40
2018-07-21T01:06:00.516Z,5.03
2018-07-21T01:08:29.773Z,4.37
2018-07-21T01:10:58.950Z,4.10
2018-07-21T01:13:28.417Z,4.80
2018-07-21T01:15:57.550Z,4.27
2018-07-21T01:18:26.718Z,4.13
2018-07-21T01:20:55.970Z,3.90
2018-07-21T01:23:25.147Z,4.30
2018-07-21T01:25:54.330Z,4.10
2018-07-21T01:28:23.498Z,4.53
2018-07-21T01:30:52.665Z,4.27
2018-07-21T01:33:21.762Z,4.30
2018-07-21T01:35:50.911Z,4.23
2018-07-21T01:38:20.094Z,3.87
2018-07-21T01:40:49.230Z,3.80
2018-07-21T01:43:18.326Z,4.07
2018-07-21T01:45:47.652Z,5.10
2018-07-21T01:48:16.741Z,4.73
2018-07-21T01:50:45.841Z,4.57
2018-07-21T01:53:15.063Z,4.47
2018-07-21T01:55:44.170Z,5.03
2018-07-21T01:58:13.330Z,4.67
2018-07-21T02:00:42.430Z,4.83
2018-07-21T02:03:11.631Z,4.80
2018-07-21T02:05:40.735Z,4.17
2018-07-21T02:08:09.989Z,4.67
2018-07-21T02:10:38.976Z,5.20
2018-07-21T02:13:08.069Z,5.00
2018-07-21T02:15:37.311Z,4.70
2018-07-21T02:18:06.504Z,4.40
2018-07-21T02:20:35.607Z,4.57
2018-07-21T02:23:04.802Z,4.87
2018-07-21T02:25:33.920Z,4.97
2018-07-21T02:28:03.027Z,4.57
2018-07-21T02:30:32.214Z,3.70
2018-07-21T02:33:01.352Z,3.93
2018-07-21T02:35:30.510Z,5.20
2018-07-21T02:37:59.675Z,3.37
2018-07-21T02:40:28.810Z,4.60
2018-07-21T02:42:57.955Z,4.53
2018-07-21T02:45:27.173Z,4.70
2018-07-21T02:47:56.336Z,5.33
2018-07-21T02:50:25.685Z,5.13
2018-07-21T02:52:54.837Z,4.00
2018-07-21T02:55:23.967Z,3.80
2018-07-21T02:57:53.089Z,5.30
2018-07-21T03:00:22.267Z,6.10
2018-07-21T03:02:51.413Z,4.07
2018-07-21T03:05:20.556Z,4.10
2018-07-21T03:07:49.699Z,4.93
2018-07-21T03:10:18.843Z,3.63
2018-07-21T03:12:47.983Z,4.60
2018-07-21T03:15:17.086Z,4.23
2018-07-21T03:17:46.231Z,5.17
2018-07-21T03:20:15.339Z,4.40
2018-07-21T03:22:44.478Z,4.60
2018-07-21T03:25:13.669Z,3.97
2018-07-21T03:27:42.760Z,4.10
2018-07-21T03:30:11.927Z,3.50
2018-07-21T03:32:41.042Z,3.53
2018-07-21T03:35:10.153Z,3.60
2018-07-21T03:37:39.807Z,3.70
2018-07-21T03:40:08.902Z,3.60
2018-07-21T03:42:38.006Z,3.90
2018-07-21T03:45:07.120Z,5.13
2018-07-21T03:47:36.264Z,3.37
2018-07-21T03:50:05.948Z,3.87
2018-07-21T03:52:35.037Z,4.40
2018-07-21T03:55:04.251Z,4.17
2018-07-21T03:57:33.413Z,4.40
2018-07-21T04:00:02.543Z,3.63
2018-07-21T04:02:31.690Z,3.63
2018-07-21T04:05:00.798Z,4.13
2018-07-21T04:07:30.327Z,4.00
2018-07-21T04:09:59.447Z,4.13
2018-07-21T04:12:28.593Z,3.80
2018-07-21T04:14:57.710Z,4.07
2018-07-21T04:17:27.699Z,4.90
2018-07-21T04:19:57.634Z,3.80
2018-07-21T04:22:27.202Z,3.80
2018-07-21T04:24:56.754Z,3.73
2018-07-21T04:27:25.838Z,3.70
2018-07-21T04:29:55.014Z,3.93
2018-07-21T04:32:24.131Z,3.37
2018-07-21T04:34:53.256Z,3.90
2018-07-21T04:37:22.415Z,3.63
2018-07-21T04:39:51.533Z,3.30
2018-07-21T04:42:20.705Z,3.20
2018-07-21T04:44:49.841Z,3.30
2018-07-21T04:47:19.015Z,3.70
2018-07-21T04:49:48.111Z,3.37
2018-07-21T04:52:17.206Z,2.30
2018-07-21T04:54:46.519Z,3.00
2018-07-21T04:57:15.633Z,2.70
2018-07-21T04:59:44.730Z,2.83
2018-07-21T05:02:13.876Z,2.40
2018-07-21T05:04:42.978Z,3.10
2018-07-21T05:07:12.090Z,2.50
2018-07-21T05:09:41.228Z,2.40
2018-07-21T05:12:10.338Z,1.90
2018-07-21T05:14:39.455Z,2.43
2018-07-21T05:17:08.567Z,2.63
2018-07-21T05:19:37.752Z,1.80
2018-07-21T05:22:07.214Z,2.37
2018-07-21T05:24:36.338Z,1.90
2018-07-21T05:27:18.936Z,2.47
2018-07-21T05:29:48.073Z,2.40
2018-07-21T05:32:17.210Z,1.83
2018-07-21T05:34:46.369Z,1.57
2018-07-21T05:37:15.554Z,2.10
2018-07-21T05:39:44.697Z,1.80
2018-07-21T05:42:13.847Z,1.80
2018-07-21T05:44:42.980Z,2.13
2018-07-21T05:47:13.150Z,1.60
2018-07-21T05:49:42.300Z,2.07
2018-07-21T05:52:11.405Z,1.43
2018-07-21T05:54:40.611Z,2.20
2018-07-21T05:57:10.021Z,1.77
2018-07-21T05:59:39.269Z,1.40
2018-07-21T06:02:08.676Z,1.87
2018-07-21T06:04:37.874Z,1.60
2018-07-21T06:07:06.967Z,1.40
2018-07-21T06:09:36.177Z,1.90
2018-07-21T06:12:05.294Z,1.57
2018-07-21T06:14:34.396Z,1.90
2018-07-21T06:17:03.613Z,1.57
2018-07-21T06:19:32.754Z,1.53
2018-07-21T06:22:01.890Z,1.90
2018-07-21T06:24:31.040Z,1.60
2018-07-21T06:27:00.218Z,1.30
2018-07-21T06:29:29.347Z,1.83
2018-07-21T06:31:58.509Z,1.50
2018-07-21T06:34:27.655Z,1.57
2018-07-21T06:36:56.929Z,1.67
2018-07-21T06:39:26.100Z,1.40
2018-07-21T06:41:55.042Z,1.60
2018-07-21T06:44:24.154Z,1.73
2018-07-21T06:46:53.297Z,1.70
2018-07-21T06:49:22.411Z,2.03
2018-07-21T06:51:51.542Z,1.70
2018-07-21T06:54:20.731Z,1.50
2018-07-21T06:56:49.866Z,1.73
2018-07-21T06:59:18.998Z,1.60
2018-07-21T07:01:48.779Z,1.60
2018-07-21T07:04:17.953Z,1.60
2018-07-21T07:06:47.084Z,1.50
2018-07-21T07:09:16.217Z,1.97
2018-07-21T07:11:45.377Z,2.10
2018-07-21T07:14:14.509Z,1.80
2018-07-21T07:16:43.658Z,1.30
2018-07-21T07:19:12.798Z,1.53
2018-07-21T07:21:42.036Z,1.37
2018-07-21T07:24:11.643Z,1.53
2018-07-21T07:26:40.779Z,1.57
2018-07-21T07:29:09.869Z,1.70
2018-07-21T07:31:39.345Z,1.50
2018-07-21T07:34:08.605Z,1.60
2018-07-21T07:36:37.743Z,1.27
2018-07-21T07:39:09.333Z,1.90
2018-07-21T07:41:38.947Z,1.60
2018-07-21T07:44:08.250Z,1.80
2018-07-21T07:46:37.481Z,1.67
2018-07-21T07:49:06.970Z,1.83
2018-07-21T07:51:36.170Z,1.47
2018-07-21T07:54:05.366Z,1.33
2018-07-21T07:56:34.536Z,1.60
2018-07-21T07:59:03.643Z,1.80
2018-07-21T08:01:32.817Z,1.70
2018-07-21T08:04:02.122Z,1.33
2018-07-21T08:06:31.296Z,1.57
2018-07-21T08:09:00.457Z,1.63
2018-07-21T08:11:29.610Z,1.60
2018-07-21T08:13:58.757Z,1.70
2018-07-21T08:16:27.885Z,1.50
2018-07-21T08:18:57.014Z,1.67
2018-07-21T08:21:26.188Z,1.47
2018-07-21T08:23:55.810Z,1.40
2018-07-21T08:26:24.982Z,1.43
2018-07-21T08:28:54.150Z,1.50
2018-07-21T08:31:23.301Z,1.83
2018-07-21T08:33:52.411Z,1.47
2018-07-21T08:36:21.677Z,2.10
2018-07-21T08:38:50.843Z,1.40
2018-07-21T08:41:20.167Z,1.50
2018-07-21T08:43:49.371Z,1.80
2018-07-21T08:46:18.727Z,1.80
2018-07-21T08:48:47.898Z,1.70
2018-07-21T08:51:17.092Z,1.90
2018-07-21T08:53:46.254Z,1.70
2018-07-21T08:56:15.359Z,1.70
2018-07-21T08:58:44.567Z,1.73
2018-07-21T09:01:13.713Z,1.40
2018-07-21T09:03:42.877Z,1.60
2018-07-21T09:06:12.078Z,1.50
2018-07-21T09:08:41.241Z,1.97
2018-07-21T09:11:10.402Z,2.13
2018-07-21T09:13:40.916Z,2.60
2018-07-21T09:16:10.086Z,1.60
2018-07-21T09:18:39.285Z,1.60
2018-07-21T09:21:08.499Z,1.87
2018-07-21T09:23:37.634Z,2.30
2018-07-21T09:26:06.818Z,2.00
2018-07-21T09:28:36.003Z,2.80
2018-07-21T09:31:05.194Z,2.27
2018-07-21T09:33:34.374Z,1.83
2018-07-21T09:36:03.566Z,1.87
2018-07-21T09:38:32.735Z,1.87
2018-07-21T09:41:01.899Z,2.17
2018-07-21T09:43:31.102Z,1.77
2018-07-21T09:46:00.303Z,2.30
2018-07-21T09:48:29.530Z,1.87
2018-07-21T09:50:58.650Z,1.90
2018-07-21T09:53:27.835Z,2.13
2018-07-21T09:55:57.047Z,2.70
2018-07-21T09:58:26.140Z,1.70
2018-07-21T10:01:00.575Z,1.53
2018-07-21T10:03:29.883Z,2.33
2018-07-21T10:05:59.104Z,2.33
2018-07-21T10:08:28.278Z,1.90
2018-07-21T10:10:57.444Z,2.33
2018-07-21T10:13:26.584Z,2.10
2018-07-21T10:15:55.928Z,2.40
2018-07-21T10:18:25.032Z,2.07
2018-07-21T10:20:54.195Z,2.27
2018-07-21T10:23:23.408Z,2.60
2018-07-21T10:25:57.902Z,2.90
2018-07-21T10:28:32.575Z,3.87
2018-07-21T10:31:01.753Z,3.43
2018-07-21T10:33:30.923Z,2.70
2018-07-21T10:36:00.167Z,2.47
2018-07-21T10:38:29.258Z,2.83
2018-07-21T10:40:58.381Z,2.63
2018-07-21T10:43:27.514Z,2.80
2018-07-21T10:45:56.649Z,2.70
2018-07-21T10:48:25.807Z,3.20
2018-07-21T10:50:55.123Z,3.33
2018-07-21T10:53:24.305Z,3.70
2018-07-21T10:55:53.419Z,3.27
2018-07-21T10:58:22.680Z,3.20
2018-07-21T11:00:51.792Z,3.20
2018-07-21T11:03:20.912Z,3.83
2018-07-21T11:05:50.099Z,3.87
2018-07-21T11:08:19.251Z,3.60
2018-07-21T11:10:48.363Z,3.13
2018-07-21T11:13:17.507Z,3.27
2018-07-21T11:15:46.669Z,3.20
2018-07-21T11:18:15.859Z,4.10
2018-07-21T11:20:45.019Z,3.40
2018-07-21T11:23:14.759Z,4.30
2018-07-21T11:25:43.906Z,4.07
2018-07-21T11:28:13.056Z,4.17
2018-07-21T11:30:42.159Z,4.30
2018-07-21T11:33:11.278Z,4.77
2018-07-21T11:35:40.558Z,5.80
2018-07-21T11:38:09.591Z,4.37
2018-07-21T11:40:38.706Z,3.93
2018-07-21T11:43:07.892Z,3.90
2018-07-21T11:45:37.031Z,4.43
2018-07-21T11:48:06.687Z,4.10
2018-07-21T11:50:35.819Z,5.07
2018-07-21T11:53:04.971Z,4.50
2018-07-21T11:55:34.102Z,5.00
2018-07-21T11:58:03.246Z,4.03
2018-07-21T12:00:32.356Z,3.70
2018-07-21T12:03:01.574Z,4.50
2018-07-21T12:05:30.694Z,4.70
2018-07-21T12:08:00.034Z,4.40
2018-07-21T12:10:29.168Z,3.93
2018-07-21T12:12:58.356Z,5.10
2018-07-21T12:15:27.464Z,5.93
2018-07-21T12:17:56.635Z,4.50
2018-07-21T12:20:25.853Z,4.80
2018-07-21T12:22:54.878Z,4.50
2018-07-21T12:25:24.038Z,5.13
2018-07-21T12:27:53.916Z,5.47
2018-07-21T12:30:23.035Z,5.00
2018-07-21T12:32:52.197Z,5.33
2018-07-21T12:35:21.290Z,5.40
2018-07-21T12:37:50.413Z,5.47
2018-07-21T12:40:19.541Z,5.10
2018-07-21T12:42:48.707Z,5.30
2018-07-21T12:45:17.830Z,5.43
2018-07-21T12:47:46.943Z,4.97
2018-07-21T12:50:16.103Z,5.40
2018-07-21T12:52:45.236Z,5.40
2018-07-21T12:55:14.356Z,10.87
2018-07-21T12:57:43.496Z,5.83
2018-07-21T13:00:12.589Z,4.93
2018-07-21T13:02:41.785Z,5.53
2018-07-21T13:05:10.890Z,5.40
2018-07-21T13:07:40.006Z,5.00
2018-07-21T13:10:09.151Z,5.53
2018-07-21T13:12:38.269Z,6.00
2018-07-21T13:15:07.750Z,5.97
2018-07-21T13:17:36.928Z,5.17
2018-07-21T13:20:06.470Z,5.20
2018-07-21T13:22:35.674Z,5.47
2018-07-21T13:25:05.004Z,5.87
2018-07-21T13:27:34.106Z,5.47
2018-07-21T13:30:03.234Z,5.27
2018-07-21T13:32:32.349Z,5.03
2018-07-21T13:35:02.495Z,5.50
2018-07-21T13:37:31.603Z,5.80
2018-07-21T13:40:00.785Z,5.83
2018-07-21T13:42:29.894Z,5.03
2018-07-21T13:44:59.050Z,5.40
2018-07-21T13:47:28.214Z,4.77
2018-07-21T13:49:57.876Z,5.10
2018-07-21T13:52:27.006Z,7.67
2018-07-21T13:54:56.175Z,6.03
2018-07-21T13:57:25.301Z,5.40
2018-07-21T13:59:54.418Z,5.93
2018-07-21T14:02:23.557Z,5.37
2018-07-21T14:04:52.686Z,5.83
2018-07-21T14:07:21.839Z,6.13
2018-07-21T14:09:51.028Z,5.53
2018-07-21T14:12:20.166Z,5.50
2018-07-21T14:14:49.300Z,6.10
2018-07-21T14:17:18.425Z,6.40
2018-07-21T14:19:47.535Z,6.03
2018-07-21T14:22:16.663Z,6.07
2018-07-21T14:24:46.012Z,6.90
2018-07-21T14:27:15.142Z,4.93
2018-07-21T14:29:44.384Z,5.33
2018-07-21T14:32:13.457Z,5.73
2018-07-21T14:34:42.622Z,7.03
2018-07-21T14:37:11.735Z,8.60
2018-07-21T14:39:40.845Z,5.23
2018-07-21T14:42:10.103Z,7.47
2018-07-21T14:44:39.215Z,6.33
2018-07-21T14:47:08.323Z,6.47
2018-07-21T14:49:37.444Z,5.80
2018-07-21T14:52:06.578Z,7.37
2018-07-21T14:54:35.760Z,5.30
2018-07-21T14:57:04.909Z,5.23
2018-07-21T14:59:34.052Z,5.73
2018-07-21T15:02:03.204Z,6.23
2018-07-21T15:04:32.369Z,5.80
2018-07-21T15:07:01.534Z,6.30
2018-07-21T15:09:30.740Z,9.17
2018-07-21T15:11:59.835Z,5.57
2018-07-21T15:14:28.777Z,5.33
2018-07-21T15:16:58.041Z,5.50
2018-07-21T15:19:27.157Z,6.03
2018-07-21T15:21:56.287Z,5.90
2018-07-21T15:24:25.394Z,6.37
2018-07-21T15:26:54.516Z,6.40
2018-07-21T15:29:23.552Z,6.00
2018-07-21T15:31:52.673Z,5.90
2018-07-21T15:34:21.779Z,6.60
2018-07-21T15:36:51.014Z,5.50
2018-07-21T15:39:20.123Z,6.40
2018-07-21T15:41:49.270Z,6.00
2018-07-21T15:44:18.385Z,6.10
2018-07-21T15:46:47.511Z,6.27
2018-07-21T15:49:16.638Z,5.50
2018-07-21T15:51:45.943Z,6.23
2018-07-21T15:54:15.069Z,5.87
2018-07-21T15:56:45.083Z,5.93
2018-07-21T15:59:14.263Z,5.53
2018-07-21T16:01:43.430Z,5.57
2018-07-21T16:04:12.649Z,6.27
2018-07-21T16:06:41.798Z,5.83
2018-07-21T16:09:11.930Z,7.03
2018-07-21T16:11:41.395Z,6.60
2018-07-21T16:14:10.518Z,6.57
2018-07-21T16:16:39.659Z,6.97
2018-07-21T16:19:08.766Z,8.97
2018-07-21T16:21:38.037Z,6.83
2018-07-21T16:24:07.160Z,5.60
2018-07-21T16:26:36.262Z,6.10
2018-07-21T16:29:05.693Z,6.60
2018-07-21T16:31:34.819Z,6.00
2018-07-21T16:34:03.972Z,5.33
2018-07-21T16:36:33.756Z,6.93
2018-07-21T16:39:02.853Z,6.23
2018-07-21T16:41:32.008Z,6.80
2018-07-21T16:44:01.127Z,6.30
2018-07-21T16:46:30.264Z,6.23
2018-07-21T16:48:59.402Z,6.87
2018-07-21T16:51:28.528Z,6.30
2018-07-21T16:53:57.719Z,6.30
2018-07-21T16:56:26.915Z,7.83
2018-07-21T16:58:56.074Z,6.00
2018-07-21T17:01:25.252Z,7.03
2018-07-21T17:03:54.458Z,6.20
2018-07-21T17:06:23.625Z,6.03
2018-07-21T17:08:52.766Z,7.03
2018-07-21T17:11:21.919Z,6.80
2018-07-21T17:13:51.078Z,6.90
2018-07-21T17:16:20.226Z,6.50
2018-07-21T17:18:49.374Z,7.43
2018-07-21T17:21:18.512Z,6.90
2018-07-21T17:23:47.717Z,7.13
2018-07-21T17:26:16.879Z,6.73
2018-07-21T17:28:46.023Z,6.27
2018-07-21T17:31:15.166Z,6.70
2018-07-21T17:33:44.281Z,6.67
2018-07-21T17:36:13.455Z,6.60
2018-07-21T17:38:42.615Z,6.13
2018-07-21T17:41:11.774Z,6.27
2018-07-21T17:43:40.949Z,6.60
2018-07-21T17:46:10.105Z,6.83
2018-07-21T17:48:39.277Z,7.80
2018-07-21T17:51:08.405Z,12.00
2018-07-21T17:53:37.556Z,8.87
2018-07-21T17:56:06.742Z,15.00
2018-07-21T17:58:35.971Z,8.27
2018-07-21T18:01:05.071Z,6.67
2018-07-21T18:03:34.285Z,6.20
2018-07-21T18:06:03.482Z,7.50
2018-07-21T18:08:32.601Z,7.23
2018-07-21T18:11:01.735Z,6.63
2018-07-21T18:13:30.871Z,6.63
2018-07-21T18:16:00.167Z,7.07
2018-07-21T18:18:29.382Z,8.47
2018-07-21T18:20:58.566Z,7.60
2018-07-21T18:23:28.390Z,9.50
2018-07-21T18:25:57.547Z,7.43
2018-07-21T18:28:26.728Z,8.03
2018-07-21T18:30:55.854Z,7.83
2018-07-21T18:33:25.122Z,7.60
2018-07-21T18:35:54.270Z,6.60
2018-07-21T18:38:23.414Z,6.80
2018-07-21T18:40:52.796Z,7.90
2018-07-21T18:43:21.956Z,6.83
2018-07-21T18:45:51.113Z,6.90
2018-07-21T18:48:21.187Z,6.60
2018-07-21T18:50:50.414Z,6.17
2018-07-21T18:53:19.567Z,7.43
2018-07-21T18:55:48.721Z,7.70
2018-07-21T18:58:17.906Z,9.50
2018-07-21T19:00:47.039Z,9.13
2018-07-21T19:03:16.788Z,7.90
2018-07-21T19:05:46.035Z,8.93
2018-07-21T19:08:20.463Z,7.23
2018-07-21T19:10:49.954Z,7.10
2018-07-21T19:13:19.153Z,8.40
2018-07-21T19:15:53.650Z,7.60
2018-07-21T19:18:22.658Z,8.07
2018-07-21T19:20:57.177Z,8.20
2018-07-21T19:23:26.395Z,8.60
2018-07-21T19:26:00.915Z,7.50
2018-07-21T19:28:30.218Z,7.57
2018-07-21T19:30:59.378Z,10.17
2018-07-21T19:33:28.522Z,9.97
2018-07-21T19:35:58.464Z,8.60
2018-07-21T19:38:27.619Z,9.23
2018-07-21T19:40:56.802Z,7.97
2018-07-21T19:43:26.098Z,8.10
2018-07-21T19:45:55.267Z,7.07
2018-07-21T19:48:24.378Z,7.47
2018-07-21T19:50:53.576Z,8.20
2018-07-21T19:53:22.719Z,10.27
2018-07-21T19:55:52.142Z,8.20
2018-07-21T19:58:21.623Z,8.47
2018-07-21T20:00:50.818Z,9.37
2018-07-21T20:03:19.950Z,9.17
2018-07-21T20:05:49.117Z,9.07
2018-07-21T20:08:18.270Z,8.43
2018-07-21T20:10:47.410Z,9.83
2018-07-21T20:13:16.530Z,9.57
2018-07-21T20:15:45.726Z,8.40
2018-07-21T20:18:14.994Z,9.60
2018-07-21T20:20:44.198Z,7.90
2018-07-21T20:23:13.359Z,7.80
2018-07-21T20:25:42.710Z,8.50
2018-07-21T20:28:11.959Z,7.87
2018-07-21T20:30:41.678Z,9.60
2018-07-21T20:33:10.791Z,8.60
2018-07-21T20:35:39.928Z,9.10
2018-07-21T20:38:09.107Z,9.47
2018-07-21T20:40:38.249Z,8.63
2018-07-21T20:43:07.978Z,10.30
2018-07-21T20:45:37.214Z,10.00
2018-07-21T20:48:06.420Z,10.40
2018-07-21T20:50:35.828Z,9.00
2018-07-21T20:53:05.035Z,9.50
2018-07-21T20:55:34.171Z,10.37
2018-07-21T20:58:03.715Z,8.33
2018-07-21T21:00:33.511Z,8.27
2018-07-21T21:03:02.756Z,9.00
2018-07-21T21:05:32.011Z,9.00
2018-07-21T21:08:01.211Z,8.37
2018-07-21T21:10:30.344Z,8.60
2018-07-21T21:12:59.499Z,8.20
2018-07-21T21:15:28.665Z,8.10
2018-07-21T21:17:57.854Z,8.40
2018-07-21T21:20:27.031Z,7.23
2018-07-21T21:22:56.865Z,8.70
2018-07-21T21:25:26.047Z,8.27
2018-07-21T21:27:55.397Z,8.90
2018-07-21T21:30:24.634Z,9.50
2018-07-21T21:32:53.832Z,8.43
2018-07-21T21:35:23.031Z,7.30
2018-07-21T21:37:52.187Z,7.17
2018-07-21T21:40:21.401Z,6.97
2018-07-21T21:42:50.772Z,8.07
2018-07-21T21:45:19.918Z,6.97
2018-07-21T21:47:49.076Z,7.93
2018-07-21T21:50:18.303Z,7.20
2018-07-21T21:52:47.513Z,8.10
2018-07-21T21:55:16.712Z,8.10
2018-07-21T21:57:45.848Z,7.43
2018-07-21T22:00:14.976Z,7.53
2018-07-21T22:02:44.134Z,8.00
2018-07-21T22:05:13.278Z,8.10
2018-07-21T22:07:42.480Z,7.80
2018-07-21T22:10:11.795Z,7.60
2018-07-21T22:12:40.989Z,7.20
2018-07-21T22:15:15.394Z,7.17
2018-07-21T22:17:45.452Z,8.20
2018-07-21T22:20:14.605Z,7.47
2018-07-21T22:22:44.129Z,7.17
2018-07-21T22:25:13.299Z,7.57
2018-07-21T22:27:42.466Z,8.17
2018-07-21T22:30:17.841Z,8.70
2018-07-21T22:32:46.985Z,8.30
2018-07-21T22:35:16.139Z,7.40
2018-07-21T22:37:45.364Z,7.70
2018-07-21T22:40:14.610Z,8.60
2018-07-21T22:42:45.335Z,8.03
2018-07-21T22:45:14.482Z,7.70
2018-07-21T22:47:45.372Z,7.77
2018-07-21T22:50:14.590Z,7.60
2018-07-21T22:52:43.748Z,7.90
2018-07-21T22:55:13.178Z,7.87
2018-07-21T22:57:42.511Z,7.73
2018-07-21T23:00:11.750Z,8.03
2018-07-21T23:02:41.892Z,8.10
2018-07-21T23:05:11.686Z,7.80
2018-07-21T23:07:40.924Z,7.77
2018-07-21T23:10:10.112Z,8.37
2018-07-21T23:12:39.264Z,8.23
2018-07-21T23:15:09.545Z,8.00
2018-07-21T23:17:38.681Z,8.97
2018-07-21T23:20:08.881Z,8.20
2018-07-21T23:22:38.305Z,7.70
2018-07-21T23:25:07.978Z,8.33
2018-07-21T23:27:37.160Z,8.10
2018-07-21T23:30:06.394Z,8.67
2018-07-21T23:32:35.615Z,7.60
2018-07-21T23:35:05.261Z,8.17
2018-07-21T23:37:34.924Z,8.90
2018-07-21T23:40:04.882Z,8.70
2018-07-21T23:42:34.987Z,7.90
2018-07-21T23:45:04.179Z,8.27
2018-07-21T23:47:33.319Z,9.10
2018-07-21T23:50:02.438Z,9.17
2018-07-21T23:52:31.578Z,8.23
2018-07-21T23:55:07.732Z,8.43
2018-07-21T23:57:37.305Z,9.60
